Jordan, Montana
Current Conditions -  °F | °C
As of 8:53 AM on Wednesday 22 Oct 2014 (Local Time) from KGGW Reporting Station
Broken Clouds Broken Clouds  
Wind Chill: 44°   Ceiling: 3000
Heat Index: 48°   Visibility: 10mi
Dew Point: 37°   Wind: 9mph
Humidity: 66%   Direction: 260°W
Pressure: 29.84"   Gusts: NA
Location:  47.32°N, 106.91°W
Report Text: KGGW 221453Z AUTO 26008KT 10SM BKN030 09/03 A2984 RMK AO2 SLP111 T00890028 53014
Loading
Personal Weather Stations






























Interactive Weather Map
Tropical Storm Tracking
New forecast layout! Learn more

10-Day Weather Forecast

Advertisements
Track Severe Weather on mobile